Time;durP1;ratioP1;P1;durP2;ratioP2;P2;SDS_P1;SDS_P2;PMS_P1;PMS_P2;Temp;Humidity;BMP_temperature;BMP_pressure;BME280_temperature;BME280_humidity;BME280_pressure;Samples;Min_cycle;Max_cycle;Signal;HPM_P1;HPM_P2
2023/09/25 00:03:59;;;;;;;2.28;0.95;;;;;;;12.48;66.16;101175.00;10431004;28;20112;-57
2023/09/25 00:09:01;;;;;;;3.20;1.02;;;;;;;12.46;65.78;101176.16;10425016;28;20052;-59
2023/09/25 00:14:02;;;;;;;1.45;0.80;;;;;;;12.37;65.95;101163.72;10426489;28;20080;-57
2023/09/25 00:19:04;;;;;;;3.00;0.60;;;;;;;12.36;66.33;101168.25;10423490;28;20050;-58
2023/09/25 00:24:06;;;;;;;1.33;0.70;;;;;;;12.25;66.63;101166.72;10425427;28;20041;-57
2023/09/25 00:29:10;;;;;;;2.08;0.70;;;;;;;12.23;66.54;101173.28;10425352;28;20044;-57
2023/09/25 00:34:13;;;;;;;2.80;0.70;;;;;;;12.11;67.02;101167.38;10423550;28;20041;-57
2023/09/25 00:39:15;;;;;;;0.88;0.63;;;;;;;12.12;66.69;101169.06;10423329;28;20041;-57
2023/09/25 00:44:16;;;;;;;0.88;0.60;;;;;;;12.12;66.62;101166.34;10418767;28;20140;-56
2023/09/25 00:49:18;;;;;;;1.95;0.80;;;;;;;12.01;67.14;101169.38;10421206;28;20140;-56
2023/09/25 00:54:20;;;;;;;4.28;0.70;;;;;;;11.93;67.15;101175.59;10420708;28;20457;-56
2023/09/25 00:59:41;;;;;;;1.40;0.50;;;;;;;11.96;67.62;101179.81;10397455;28;20492;-55
2023/09/25 01:04:43;;;;;;;1.70;0.68;;;;;;;12.01;66.93;101172.09;10421880;28;20056;-57
2023/09/25 01:10:04;;;;;;;2.35;0.98;;;;;;;11.97;67.08;101155.41;10419539;28;20048;-56
2023/09/25 01:15:07;;;;;;;4.30;1.05;;;;;;;11.85;67.07;101162.06;10407517;28;20049;-56
2023/09/25 01:20:17;;;;;;;2.53;0.85;;;;;;;11.75;67.52;101155.97;10424321;28;20071;-56
2023/09/25 01:25:20;;;;;;;5.65;1.50;;;;;;;11.75;67.57;101156.81;10420534;28;20049;-58
2023/09/25 01:30:21;;;;;;;2.03;0.70;;;;;;;11.61;67.52;101150.22;10424413;28;20046;-56
2023/09/25 01:35:24;;;;;;;2.90;0.70;;;;;;;11.57;67.90;101150.69;10421408;28;20512;-56
2023/09/25 01:40:27;;;;;;;2.45;0.70;;;;;;;11.51;68.09;101149.47;10409582;28;20561;-56
2023/09/25 01:45:29;;;;;;;0.65;0.57;;;;;;;11.52;68.00;101146.63;10420823;28;20492;-55
2023/09/25 01:50:30;;;;;;;1.08;0.70;;;;;;;11.58;67.45;101142.47;10424385;28;20049;-55
2023/09/25 01:55:36;;;;;;;2.42;0.85;;;;;;;11.56;67.53;101139.09;10420907;28;20057;-58
2023/09/25 02:00:38;;;;;;;1.10;0.70;;;;;;;11.58;67.75;101149.69;10424351;28;20532;-58
2023/09/25 02:05:43;;;;;;;0.93;0.60;;;;;;;11.58;67.27;101133.53;10425607;28;20051;-57
2023/09/25 02:10:46;;;;;;;1.80;0.60;;;;;;;11.53;67.69;101134.00;10425473;28;20069;-57
2023/09/25 02:15:47;;;;;;;1.15;0.60;;;;;;;11.49;67.60;101121.88;10425754;28;20061;-56
2023/09/25 02:20:49;;;;;;;2.53;0.95;;;;;;;11.44;67.90;101122.38;10425213;28;20052;-56
2023/09/25 02:25:50;;;;;;;1.73;0.70;;;;;;;11.34;67.95;101129.75;10418496;28;20076;-58
2023/09/25 02:30:52;;;;;;;1.08;0.77;;;;;;;11.22;68.51;101121.13;10416741;28;20042;-57
2023/09/25 02:36:03;;;;;;;1.90;0.80;;;;;;;11.29;68.38;101121.31;10425725;28;20140;-57
2023/09/25 02:41:05;;;;;;;2.17;0.73;;;;;;;11.29;67.67;101124.84;10418441;28;20052;-57
2023/09/25 02:46:06;;;;;;;1.23;0.60;;;;;;;11.20;67.88;101125.81;10421337;28;20090;-57
2023/09/25 02:51:08;;;;;;;1.50;0.73;;;;;;;11.12;68.59;101125.78;10425982;28;20411;-58
2023/09/25 02:56:11;;;;;;;2.33;0.85;;;;;;;11.09;68.59;101126.09;10427966;28;20152;-58
2023/09/25 03:01:13;;;;;;;2.00;0.77;;;;;;;11.10;68.61;101123.25;10431135;28;21163;-56
2023/09/25 03:06:14;;;;;;;4.10;1.17;;;;;;;11.14;68.36;101121.09;10437004;28;20066;-56
2023/09/25 03:11:16;;;;;;;1.63;0.77;;;;;;;11.10;68.12;101125.94;10439374;28;20135;-55
2023/09/25 03:16:17;;;;;;;4.05;0.70;;;;;;;11.07;68.04;101123.56;10434905;28;20515;-56
2023/09/25 03:21:19;;;;;;;0.85;0.50;;;;;;;11.05;68.00;101125.56;10430854;28;20270;-55
2023/09/25 03:26:20;;;;;;;2.45;0.70;;;;;;;10.95;68.42;101132.91;10433092;28;20057;-55
2023/09/25 03:31:22;;;;;;;1.30;0.60;;;;;;;10.90;68.15;101130.69;10433169;28;20049;-57
2023/09/25 03:36:23;;;;;;;1.30;0.70;;;;;;;10.89;68.53;101126.31;10429572;28;20578;-56
2023/09/25 03:41:25;;;;;;;2.15;0.60;;;;;;;10.77;68.33;101132.13;10412496;28;20073;-55
2023/09/25 03:46:26;;;;;;;1.40;0.60;;;;;;;10.70;68.78;101126.53;10426577;28;20052;-55
2023/09/25 03:51:28;;;;;;;2.28;0.80;;;;;;;10.69;68.43;101133.75;10432856;28;20061;-54
2023/09/25 03:56:30;;;;;;;1.13;0.63;;;;;;;10.64;68.31;101130.72;10437983;28;20456;-56
2023/09/25 04:01:31;;;;;;;2.97;0.70;;;;;;;10.60;68.53;101128.47;10425811;28;20069;-55
2023/09/25 04:06:33;;;;;;;2.28;1.60;;;;;;;10.44;69.08;101127.34;10408588;28;20396;-58
2023/09/25 04:11:35;;;;;;;2.78;0.80;;;;;;;10.53;68.80;101120.19;10429931;28;20490;-57
2023/09/25 04:16:36;;;;;;;1.45;0.77;;;;;;;10.57;68.76;101123.41;10425034;28;20496;-58
2023/09/25 04:21:38;;;;;;;1.48;0.70;;;;;;;10.60;68.53;101123.09;10427504;28;20053;-57
2023/09/25 04:26:39;;;;;;;1.35;0.80;;;;;;;10.62;69.02;101132.69;10428502;28;20052;-58
2023/09/25 04:31:41;;;;;;;2.35;0.85;;;;;;;10.61;68.79;101124.78;10429842;28;20049;-57
2023/09/25 04:36:45;;;;;;;1.65;0.80;;;;;;;10.54;69.20;101121.03;10416456;28;20056;-57
2023/09/25 04:41:47;;;;;;;2.00;0.95;;;;;;;10.48;69.36;101134.09;10428701;28;20043;-58
2023/09/25 04:46:49;;;;;;;3.67;0.98;;;;;;;10.52;69.12;101127.44;10424573;28;20140;-58
2023/09/25 04:51:50;;;;;;;1.67;0.80;;;;;;;10.56;69.09;101143.22;10426300;28;20051;-58
2023/09/25 04:56:52;;;;;;;2.13;1.30;;;;;;;10.52;68.79;101134.63;10427674;28;20623;-56
2023/09/25 05:01:54;;;;;;;1.50;0.80;;;;;;;10.55;68.76;101133.50;10423543;28;20053;-58
2023/09/25 05:06:56;;;;;;;1.38;0.90;;;;;;;10.55;69.06;101137.00;10420659;28;20049;-58
2023/09/25 05:11:57;;;;;;;1.73;0.98;;;;;;;10.55;68.94;101144.25;10428166;28;20126;-58
2023/09/25 05:17:00;;;;;;;6.03;0.90;;;;;;;10.56;68.68;101146.75;10420403;28;20049;-61
2023/09/25 05:22:01;;;;;;;1.05;0.65;;;;;;;10.56;68.75;101148.59;10420216;28;20061;-61
2023/09/25 05:27:03;;;;;;;0.80;0.60;;;;;;;10.61;68.83;101149.00;10422876;28;20049;-61
2023/09/25 05:32:04;;;;;;;4.70;0.80;;;;;;;10.66;68.92;101150.22;10417500;28;20048;-60
2023/09/25 05:37:06;;;;;;;4.32;1.42;;;;;;;10.70;68.69;101156.09;10415978;28;20045;-59
2023/09/25 05:42:07;;;;;;;1.88;1.00;;;;;;;10.78;68.90;101163.38;10415565;28;20053;-60
2023/09/25 05:47:09;;;;;;;2.60;1.15;;;;;;;10.81;68.43;101161.22;10408493;28;20053;-59
2023/09/25 05:52:10;;;;;;;2.22;0.85;;;;;;;10.87;68.87;101170.50;10415572;28;20053;-62
2023/09/25 05:57:11;;;;;;;1.88;0.82;;;;;;;10.92;68.36;101162.84;10414616;28;20064;-60
2023/09/25 06:02:13;;;;;;;1.83;1.40;;;;;;;11.02;68.59;101162.69;10396468;28;20439;-60
2023/09/25 06:07:14;;;;;;;6.20;2.08;;;;;;;11.10;68.55;101163.59;10411637;28;20768;-60
2023/09/25 06:12:16;;;;;;;2.58;1.15;;;;;;;11.22;68.22;101166.88;10422802;28;20053;-60
2023/09/25 06:17:18;;;;;;;5.22;0.95;;;;;;;11.31;68.57;101171.28;10417889;28;20065;-59
2023/09/25 06:22:22;;;;;;;4.82;1.92;;;;;;;11.40;68.66;101169.47;10415103;28;20053;-60
2023/09/25 06:27:23;;;;;;;1.52;1.00;;;;;;;11.55;68.60;101172.38;10418956;28;20326;-59
2023/09/25 06:32:25;;;;;;;7.82;1.60;;;;;;;11.66;68.69;101169.41;10422570;28;20132;-59
2023/09/25 06:37:26;;;;;;;3.10;1.30;;;;;;;11.81;69.04;101176.84;10418666;28;20069;-60
2023/09/25 06:42:28;;;;;;;3.80;1.35;;;;;;;12.04;68.80;101174.44;10423734;28;20061;-60
2023/09/25 06:47:29;;;;;;;1.73;1.00;;;;;;;12.23;68.78;101171.44;10416695;28;20045;-59
2023/09/25 06:52:31;;;;;;;3.13;1.08;;;;;;;12.44;68.79;101176.34;10420482;28;20136;-60
2023/09/25 06:57:32;;;;;;;2.47;1.45;;;;;;;12.66;68.54;101177.53;10415413;28;20046;-60
2023/09/25 07:02:34;;;;;;;5.32;1.52;;;;;;;12.85;68.51;101175.47;10418412;28;20054;-59
2023/09/25 07:07:36;;;;;;;1.65;1.13;;;;;;;13.02;68.83;101176.31;10416499;28;20523;-59
2023/09/25 07:12:38;;;;;;;3.88;1.13;;;;;;;13.23;68.58;101173.03;10418125;28;20046;-60
2023/09/25 07:17:39;;;;;;;2.60;1.30;;;;;;;13.45;68.69;101166.09;10416352;28;20148;-60
2023/09/25 07:22:42;;;;;;;1.85;1.05;;;;;;;13.64;68.69;101165.66;10418036;28;20055;-60
2023/09/25 07:27:44;;;;;;;2.65;1.23;;;;;;;13.86;68.60;101174.00;10428071;28;20255;-58
2023/09/25 07:32:46;;;;;;;1.45;1.00;;;;;;;14.06;68.37;101167.13;10420916;28;20045;-60
2023/09/25 07:37:47;;;;;;;3.53;0.68;;;;;;;14.29;68.04;101174.41;10426132;28;20047;-60
2023/09/25 07:42:49;;;;;;;4.97;0.80;;;;;;;14.52;67.97;101177.09;10428129;28;20087;-58
2023/09/25 07:47:52;;;;;;;5.47;0.90;;;;;;;14.78;67.34;101178.63;10426104;28;20054;-59
2023/09/25 07:52:54;;;;;;;0.80;0.70;;;;;;;14.91;66.90;101170.72;10422801;28;20052;-58
2023/09/25 07:57:56;;;;;;;1.35;0.60;;;;;;;15.19;66.25;101173.63;10428292;28;20076;-59
2023/09/25 08:02:58;;;;;;;1.17;0.80;;;;;;;15.37;65.89;101177.84;10427691;28;20111;-59
2023/09/25 08:07:59;;;;;;;2.05;0.77;;;;;;;15.53;65.69;101182.22;10430113;28;20570;-57
2023/09/25 08:13:01;;;;;;;1.55;1.00;;;;;;;15.65;65.22;101170.69;10431009;28;20420;-60
2023/09/25 08:18:02;;;;;;;2.22;0.80;;;;;;;15.71;65.42;101170.97;10407793;28;20044;-59
2023/09/25 08:23:04;;;;;;;1.60;0.90;;;;;;;15.80;64.88;101178.03;10423946;28;20133;-59
2023/09/25 08:28:05;;;;;;;2.20;0.80;;;;;;;15.93;64.27;101186.28;10422987;28;20511;-60
2023/09/25 08:33:07;;;;;;;1.77;0.95;;;;;;;16.08;64.22;101188.97;10414087;28;20523;-60
2023/09/25 08:38:09;;;;;;;0.98;0.80;;;;;;;16.29;63.80;101184.59;10413026;28;20463;-58
2023/09/25 08:43:10;;;;;;;1.67;0.93;;;;;;;16.44;63.37;101188.91;10416785;28;20101;-58
2023/09/25 08:48:21;;;;;;;1.10;0.70;;;;;;;16.62;63.27;101188.47;10415557;28;20080;-58
2023/09/25 08:53:22;;;;;;;1.95;0.73;;;;;;;16.83;62.62;101190.34;10413535;28;20134;-61
2023/09/25 08:58:27;;;;;;;1.35;0.80;;;;;;;16.98;62.64;101171.25;10413582;28;20084;-61
2023/09/25 09:03:28;;;;;;;2.35;0.77;;;;;;;17.21;61.74;101173.69;10425119;28;20077;-58
2023/09/25 09:08:36;;;;;;;1.95;1.20;;;;;;;17.40;61.30;101160.44;10414028;28;20060;-59
2023/09/25 09:13:47;;;;;;;2.97;0.80;;;;;;;17.52;60.88;101166.13;10411979;28;20052;-59
2023/09/25 09:18:49;;;;;;;1.15;0.70;;;;;;;17.66;60.39;101164.31;10415499;28;20045;-61
2023/09/25 09:23:54;;;;;;;3.65;0.75;;;;;;;17.82;59.95;101166.66;10418156;28;20180;-59
2023/09/25 09:28:55;;;;;;;3.10;0.90;;;;;;;18.02;59.28;101156.72;10419328;28;20055;-59
2023/09/25 09:33:57;;;;;;;1.88;0.68;;;;;;;18.18;58.71;101155.50;10421256;28;20136;-61
2023/09/25 09:38:59;;;;;;;1.10;0.93;;;;;;;18.33;57.95;101151.75;10429917;28;20377;-59
2023/09/25 09:44:01;;;;;;;1.65;0.80;;;;;;;18.45;57.55;101146.53;10425063;28;20072;-58
2023/09/25 09:49:04;;;;;;;3.00;0.80;;;;;;;18.59;57.22;101138.16;10420733;28;20115;-58
2023/09/25 09:54:06;;;;;;;1.30;0.70;;;;;;;18.69;56.84;101140.47;10420448;28;20041;-58
2023/09/25 09:59:09;;;;;;;1.67;0.70;;;;;;;19.00;55.90;101142.56;10419142;28;20061;-59
2023/09/25 10:04:11;;;;;;;1.88;0.50;;;;;;;19.21;55.15;101127.84;10426280;28;20046;-58
2023/09/25 10:09:14;;;;;;;2.90;0.60;;;;;;;19.41;54.48;101137.81;10416638;28;20049;-59
2023/09/25 10:14:23;;;;;;;2.88;0.60;;;;;;;19.79;54.13;101115.25;10427433;28;20052;-60
2023/09/25 10:19:40;;;;;;;1.13;0.50;;;;;;;20.17;52.63;101114.38;10430664;28;20049;-59
2023/09/25 10:24:43;;;;;;;2.25;0.63;;;;;;;20.63;52.22;101104.16;10414498;28;20049;-63
2023/09/25 10:30:06;;;;;;;2.05;0.57;;;;;;;21.05;51.42;101101.63;10420013;28;20123;-57
2023/09/25 10:35:40;;;;;;;2.42;0.60;;;;;;;21.53;49.89;101099.00;10423903;28;20057;-59
2023/09/25 10:40:47;;;;;;;1.17;0.38;;;;;;;21.57;48.81;101099.38;10421533;28;20187;-58
2023/09/25 10:45:50;;;;;;;1.38;0.50;;;;;;;21.72;48.26;101094.34;10422737;28;20385;-59
2023/09/25 10:50:52;;;;;;;1.63;0.50;;;;;;;21.71;47.52;101097.28;10410301;28;20051;-59
2023/09/25 10:55:54;;;;;;;0.82;0.52;;;;;;;22.15;46.46;101087.78;10420753;28;20050;-59
2023/09/25 11:00:56;;;;;;;2.35;0.60;;;;;;;22.43;46.77;101089.03;10422033;28;20052;-65
2023/09/25 11:05:58;;;;;;;1.48;0.68;;;;;;;22.64;45.98;101084.06;10427844;28;20052;-59
2023/09/25 11:11:01;;;;;;;0.93;0.38;;;;;;;22.85;45.38;101075.25;10424221;28;20051;-58
2023/09/25 11:16:03;;;;;;;0.68;0.32;;;;;;;23.08;45.08;101070.81;10431414;28;20067;-59
2023/09/25 11:21:05;;;;;;;0.80;0.40;;;;;;;23.53;44.13;101067.34;10433207;28;20432;-60
2023/09/25 11:26:06;;;;;;;1.25;0.40;;;;;;;24.00;42.59;101064.41;10426379;28;20527;-58
2023/09/25 11:31:08;;;;;;;0.85;0.40;;;;;;;23.99;43.19;101070.13;10430573;28;20064;-59
2023/09/25 11:36:11;;;;;;;1.75;0.50;;;;;;;24.18;43.03;101070.75;10433886;28;20134;-58
2023/09/25 11:41:12;;;;;;;2.35;0.40;;;;;;;24.28;42.30;101066.25;10429133;28;20144;-59
2023/09/25 11:46:14;;;;;;;1.00;0.40;;;;;;;24.50;41.36;101057.25;10428470;28;20053;-58
2023/09/25 11:51:15;;;;;;;0.57;0.30;;;;;;;24.50;40.69;101049.84;10428311;28;20057;-58
2023/09/25 11:56:16;;;;;;;1.63;0.30;;;;;;;24.75;40.26;101051.31;10427614;28;20041;-59
2023/09/25 12:01:19;;;;;;;1.58;0.50;;;;;;;25.19;39.72;101043.09;10423707;28;20053;-59
2023/09/25 12:06:24;;;;;;;2.17;0.40;;;;;;;26.21;37.96;101025.97;10428167;28;20060;-60
2023/09/25 12:11:25;;;;;;;1.35;0.40;;;;;;;26.47;37.41;101029.75;10428020;28;20060;-60
2023/09/25 12:16:27;;;;;;;1.30;0.40;;;;;;;26.61;36.97;101014.41;10426431;28;20053;-60
2023/09/25 12:21:29;;;;;;;0.77;0.50;;;;;;;26.65;36.97;101022.97;10423964;28;20046;-59
2023/09/25 12:26:30;;;;;;;1.85;0.60;;;;;;;26.74;36.65;101018.63;10426873;28;20049;-61
2023/09/25 12:31:32;;;;;;;1.00;0.40;;;;;;;26.70;36.98;101017.50;10423349;28;20265;-62
2023/09/25 12:36:34;;;;;;;0.70;0.40;;;;;;;26.77;36.83;101006.22;10421713;28;20119;-62
2023/09/25 12:41:35;;;;;;;1.70;0.30;;;;;;;26.70;36.54;100999.03;10412091;28;20049;-61
2023/09/25 12:46:37;;;;;;;1.02;0.40;;;;;;;26.82;36.13;100997.97;10423992;28;20045;-62
2023/09/25 12:51:38;;;;;;;1.65;0.40;;;;;;;26.94;35.61;100992.25;10420566;28;20132;-61
2023/09/25 12:56:41;;;;;;;2.97;0.40;;;;;;;26.93;35.08;100985.88;10418041;28;20053;-61
2023/09/25 13:01:42;;;;;;;3.38;0.40;;;;;;;27.27;33.88;100990.97;10427286;28;20049;-61
2023/09/25 13:06:44;;;;;;;1.10;0.30;;;;;;;27.34;34.13;100994.31;10430999;28;20112;-61
2023/09/25 13:11:46;;;;;;;1.00;0.40;;;;;;;27.35;33.63;100984.09;10426528;28;20041;-61
2023/09/25 13:16:48;;;;;;;0.82;0.30;;;;;;;27.37;33.06;100979.13;10426490;28;20055;-63
2023/09/25 13:21:49;;;;;;;2.15;0.40;;;;;;;27.59;32.54;100984.44;10426609;28;20042;-63
2023/09/25 13:26:51;;;;;;;1.73;0.40;;;;;;;27.74;32.20;100984.41;10425306;28;20048;-62
2023/09/25 13:31:52;;;;;;;0.60;0.35;;;;;;;28.04;32.19;100980.03;10424461;28;20049;-62
2023/09/25 13:36:54;;;;;;;3.00;0.40;;;;;;;28.07;31.95;100983.06;10421543;28;20041;-61
2023/09/25 13:41:55;;;;;;;0.93;0.40;;;;;;;28.37;32.09;100980.53;10418673;28;20495;-61
2023/09/25 13:46:57;;;;;;;1.95;0.43;;;;;;;28.67;31.44;100974.97;10433955;28;20064;-62
2023/09/25 13:51:58;;;;;;;1.77;0.40;;;;;;;29.17;30.89;100991.63;10466134;28;20041;-61
2023/09/25 13:57:00;;;;;;;1.23;0.32;;;;;;;29.63;30.39;100976.66;10460304;28;20084;-61
2023/09/25 14:02:02;;;;;;;0.98;0.40;;;;;;;32.04;26.99;100975.72;10456471;28;20044;-61
2023/09/25 14:07:03;;;;;;;0.90;0.40;;;;;;;33.58;24.98;100974.16;10457896;28;20045;-62
2023/09/25 14:12:05;;;;;;;0.95;0.30;;;;;;;33.68;24.09;100973.13;10463549;28;20028;-61
2023/09/25 14:17:06;;;;;;;0.70;0.30;;;;;;;34.15;23.94;100965.22;10459358;28;20112;-63
2023/09/25 14:22:08;;;;;;;3.00;0.40;;;;;;;34.70;23.98;100964.00;10443489;28;20046;-61
2023/09/25 14:27:09;;;;;;;0.70;0.30;;;;;;;34.30;24.17;100961.22;10458286;28;20496;-61
2023/09/25 14:32:11;;;;;;;2.20;0.38;;;;;;;33.06;24.75;100970.91;10444051;28;20045;-58
2023/09/25 14:37:13;;;;;;;0.57;0.30;;;;;;;32.37;25.78;100957.00;10429588;28;20111;-58
2023/09/25 14:42:16;;;;;;;1.30;0.50;;;;;;;32.04;26.23;100962.63;10429630;28;20045;-62
2023/09/25 14:47:17;;;;;;;0.95;0.50;;;;;;;32.21;26.09;100962.84;10426872;28;20503;-61
2023/09/25 14:52:20;;;;;;;0.68;0.40;;;;;;;32.20;25.75;100954.81;10416357;28;20055;-62
2023/09/25 14:57:21;;;;;;;0.98;0.30;;;;;;;32.39;25.53;100949.16;10413585;28;20707;-61
2023/09/25 15:02:23;;;;;;;1.27;0.85;;;;;;;31.77;26.43;100952.22;10428275;28;20061;-61
2023/09/25 15:07:26;;;;;;;1.35;0.40;;;;;;;31.14;26.62;100956.22;10429486;28;20058;-61
2023/09/25 15:12:28;;;;;;;0.88;0.30;;;;;;;30.87;27.13;100965.19;10413138;28;20083;-62
2023/09/25 15:17:30;;;;;;;3.15;0.50;;;;;;;30.41;27.61;100958.22;10431576;28;20446;-61
2023/09/25 15:22:31;;;;;;;1.73;0.40;;;;;;;30.05;28.15;100947.50;10433206;28;20140;-62
2023/09/25 15:27:33;;;;;;;0.82;0.32;;;;;;;29.57;28.53;100950.09;10429130;28;20132;-61
2023/09/25 15:32:34;;;;;;;0.85;0.40;;;;;;;29.25;28.81;100949.50;10412748;28;20407;-61
2023/09/25 15:37:36;;;;;;;3.70;0.40;;;;;;;29.27;29.13;100951.97;10417723;28;20053;-62
2023/09/25 15:42:38;;;;;;;1.65;0.47;;;;;;;29.23;29.73;100945.38;10424139;28;20048;-61
2023/09/25 15:47:39;;;;;;;0.77;0.30;;;;;;;28.84;29.68;100946.09;10423837;28;20072;-62
2023/09/25 15:52:41;;;;;;;0.68;0.40;;;;;;;28.30;30.47;100944.88;10422439;28;20973;-60
2023/09/25 15:57:42;;;;;;;3.53;0.55;;;;;;;27.83;31.35;100949.63;10422851;28;20452;-60
2023/09/25 16:02:44;;;;;;;1.80;0.60;;;;;;;27.43;31.68;100950.41;10429662;28;20057;-56
2023/09/25 16:07:45;;;;;;;1.88;0.50;;;;;;;27.08;32.29;100954.75;10431168;28;20635;-55
2023/09/25 16:12:47;;;;;;;1.48;0.60;;;;;;;26.71;32.55;100955.72;10425134;28;20049;-58
2023/09/25 16:17:48;;;;;;;2.10;0.68;;;;;;;26.37;33.39;100963.50;10430174;28;20046;-59
2023/09/25 16:22:50;;;;;;;4.60;0.80;;;;;;;25.99;33.93;100958.03;10432387;28;20072;-59
2023/09/25 16:27:51;;;;;;;2.80;0.60;;;;;;;25.70;34.55;100969.31;10430439;28;20056;-58
2023/09/25 16:32:52;;;;;;;1.60;0.50;;;;;;;25.40;35.53;100963.53;10429766;28;20156;-58
2023/09/25 16:37:54;;;;;;;1.50;0.63;;;;;;;25.14;35.93;100968.75;10425519;28;21234;-62
2023/09/25 16:42:56;;;;;;;2.97;0.60;;;;;;;24.85;36.75;100955.19;10430733;28;20573;-61
2023/09/25 16:47:58;;;;;;;3.22;0.75;;;;;;;24.55;37.50;100961.13;10415809;28;20059;-61
2023/09/25 16:53:00;;;;;;;2.13;0.68;;;;;;;24.25;38.10;100945.84;10416920;28;20088;-61
2023/09/25 16:58:02;;;;;;;1.10;0.47;;;;;;;23.91;38.38;100954.13;10419979;28;20452;-60
2023/09/25 17:03:04;;;;;;;1.70;0.88;;;;;;;23.60;38.86;100952.75;10414234;28;20535;-61
2023/09/25 17:08:07;;;;;;;1.50;0.70;;;;;;;23.33;39.84;100950.63;10431426;28;20049;-61
2023/09/25 17:13:09;;;;;;;1.67;0.90;;;;;;;23.07;40.62;100957.53;10428755;28;20049;-61
2023/09/25 17:18:13;;;;;;;3.97;1.02;;;;;;;22.78;41.35;100960.22;10427160;28;20053;-61
2023/09/25 17:23:15;;;;;;;5.75;1.67;;;;;;;;;;10423813;28;20089;-61
2023/09/25 17:28:16;;;;;;;4.50;1.67;;;;;;;22.18;42.90;100971.47;10427829;28;20407;-60
2023/09/25 17:33:18;;;;;;;4.00;1.55;;;;;;;21.89;43.90;100959.53;10429716;28;20049;-60
2023/09/25 17:38:20;;;;;;;2.72;1.60;;;;;;;21.59;44.57;100974.13;10412139;28;20091;-61
2023/09/25 17:43:21;;;;;;;3.50;1.00;;;;;;;21.18;45.90;100984.75;10412757;28;20048;-61
2023/09/25 17:48:23;;;;;;;2.70;1.35;;;;;;;20.77;46.70;100980.88;10430416;28;20053;-60
2023/09/25 17:53:24;;;;;;;2.35;1.30;;;;;;;20.45;47.71;100988.31;10431000;28;20057;-60
2023/09/25 17:58:26;;;;;;;4.20;1.52;;;;;;;20.26;48.09;100992.94;10426883;28;20053;-60
2023/09/25 18:03:32;;;;;;;4.47;2.03;;;;;;;19.97;48.58;100999.91;10432844;28;20515;-60
2023/09/25 18:08:33;;;;;;;5.75;1.75;;;;;;;19.61;49.57;100996.75;10428277;28;20341;-60
2023/09/25 18:13:35;;;;;;;4.47;1.60;;;;;;;19.50;49.75;101005.63;10428715;28;20045;-60
2023/09/25 18:18:37;;;;;;;7.00;2.00;;;;;;;19.34;49.99;101014.34;10414499;28;20503;-60
2023/09/25 18:23:38;;;;;;;3.53;1.50;;;;;;;19.11;50.49;101012.97;10409719;28;20048;-60
2023/09/25 18:28:40;;;;;;;2.65;1.20;;;;;;;18.77;51.56;101025.84;10420574;28;20049;-60
2023/09/25 18:33:42;;;;;;;2.85;1.10;;;;;;;18.68;51.81;101026.28;10426063;28;20053;-59
2023/09/25 18:38:43;;;;;;;5.38;1.25;;;;;;;18.63;51.85;101021.47;10423800;28;20045;-59
2023/09/25 18:43:45;;;;;;;2.70;1.00;;;;;;;18.55;52.25;101019.81;10420198;28;20054;-60
2023/09/25 18:48:46;;;;;;;1.52;1.10;;;;;;;18.45;52.52;101024.03;10422501;28;20041;-58
2023/09/25 18:53:50;;;;;;;3.42;1.58;;;;;;;18.19;53.24;101010.22;10414039;28;20119;-60
2023/09/25 18:58:52;;;;;;;3.00;1.42;;;;;;;17.96;53.92;101016.06;10419296;28;20049;-59
2023/09/25 19:03:54;;;;;;;1.98;1.08;;;;;;;17.75;54.41;101027.97;10431380;28;20053;-60
2023/09/25 19:08:55;;;;;;;3.45;1.10;;;;;;;17.68;54.84;101023.56;10423263;28;20141;-59
2023/09/25 19:13:56;;;;;;;4.07;1.15;;;;;;;17.66;55.00;101021.03;10424219;28;20056;-60
2023/09/25 19:18:59;;;;;;;4.40;1.48;;;;;;;17.48;55.31;101027.06;10426219;28;20053;-59
2023/09/25 19:24:02;;;;;;;1.92;1.13;;;;;;;17.41;55.63;101028.91;10431719;28;20042;-59
2023/09/25 19:29:04;;;;;;;3.55;1.85;;;;;;;17.32;55.76;101036.41;10424918;28;20408;-59
2023/09/25 19:34:06;;;;;;;3.08;1.10;;;;;;;17.18;55.99;101030.09;10400333;28;20056;-60
2023/09/25 19:39:08;;;;;;;2.50;1.10;;;;;;;17.09;56.41;101036.75;10409397;28;20049;-60
2023/09/25 19:44:10;;;;;;;2.05;1.33;;;;;;;16.95;56.92;101043.97;10401617;28;20045;-60
2023/09/25 19:49:12;;;;;;;3.92;1.25;;;;;;;16.90;57.01;101042.91;10422146;28;20056;-60
2023/09/25 19:54:13;;;;;;;2.05;1.40;;;;;;;16.85;57.15;101030.75;10426540;28;20495;-60
2023/09/25 19:59:14;;;;;;;3.72;1.55;;;;;;;16.79;57.17;101028.81;10425382;28;20052;-60
2023/09/25 20:04:16;;;;;;;2.13;1.17;;;;;;;16.65;57.64;101036.06;10432331;28;20049;-60
2023/09/25 20:09:19;;;;;;;3.58;1.75;;;;;;;16.50;57.94;101029.06;10422740;28;20059;-60
2023/09/25 20:14:20;;;;;;;2.55;1.52;;;;;;;16.42;58.18;101036.31;10428047;28;20056;-60
2023/09/25 20:19:22;;;;;;;3.38;1.50;;;;;;;16.35;58.46;101034.56;10432501;28;20179;-60
2023/09/25 20:24:23;;;;;;;3.85;1.80;;;;;;;16.28;58.72;101039.13;10431740;28;20045;-60
2023/09/25 20:29:25;;;;;;;5.10;1.55;;;;;;;16.06;58.96;101040.00;10433921;28;20057;-60
2023/09/25 20:34:26;;;;;;;2.75;1.83;;;;;;;15.97;59.52;101033.00;10430451;28;20053;-61
2023/09/25 20:39:28;;;;;;;3.75;1.60;;;;;;;15.93;59.40;101026.31;10418592;28;20424;-60
2023/09/25 20:44:29;;;;;;;1.88;1.60;;;;;;;15.89;59.40;101024.19;10429488;28;20077;-60
2023/09/25 20:49:31;;;;;;;2.33;1.40;;;;;;;15.75;59.86;101021.34;10416832;28;20053;-60
2023/09/25 20:54:32;;;;;;;4.22;1.58;;;;;;;15.63;60.15;101029.09;10429511;28;20041;-60
2023/09/25 20:59:34;;;;;;;2.03;1.40;;;;;;;15.55;60.34;101023.81;10429223;28;20049;-61
2023/09/25 21:04:35;;;;;;;4.88;1.90;;;;;;;15.41;60.43;101027.41;10416553;28;20053;-60
2023/09/25 21:09:38;;;;;;;3.25;1.95;;;;;;;15.31;61.05;101024.19;10431791;28;20095;-59
2023/09/25 21:14:39;;;;;;;2.08;1.42;;;;;;;15.30;60.83;101030.63;10407336;28;20701;-60
2023/09/25 21:19:41;;;;;;;3.08;1.77;;;;;;;15.23;61.10;101022.44;10409641;28;20061;-60
2023/09/25 21:24:42;;;;;;;3.63;1.83;;;;;;;15.15;61.30;101023.38;10422385;28;20059;-59
2023/09/25 21:29:44;;;;;;;2.63;1.80;;;;;;;15.03;61.70;101024.88;10429381;28;20080;-59
2023/09/25 21:34:45;;;;;;;4.43;1.77;;;;;;;14.97;61.83;101026.47;10432807;28;20047;-60
2023/09/25 21:39:47;;;;;;;6.88;2.08;;;;;;;14.93;61.77;101027.03;10428646;28;20064;-59
2023/09/25 21:44:48;;;;;;;2.45;1.70;;;;;;;14.84;61.88;101026.28;10398817;28;20496;-59
2023/09/25 21:49:50;;;;;;;6.55;3.00;;;;;;;14.75;61.96;101033.69;10428187;28;20053;-59
2023/09/25 21:54:51;;;;;;;5.53;2.20;;;;;;;14.66;62.44;101037.50;10423925;28;20053;-59
2023/09/25 21:59:53;;;;;;;8.45;2.97;;;;;;;14.61;62.45;101043.47;10423397;28;20045;-60
2023/09/25 22:04:54;;;;;;;3.38;1.80;;;;;;;14.56;62.71;101028.78;10416842;28;20045;-59
2023/09/25 22:09:56;;;;;;;5.20;1.90;;;;;;;14.51;62.57;101029.31;10431261;28;20044;-60
2023/09/25 22:14:57;;;;;;;4.32;2.10;;;;;;;14.41;62.81;101026.88;10416792;28;20052;-59
2023/09/25 22:19:59;;;;;;;2.65;1.60;;;;;;;14.35;62.82;101024.09;10419137;28;20037;-60
2023/09/25 22:25:00;;;;;;;2.35;1.55;;;;;;;14.24;63.15;101020.81;10428378;28;20052;-59
2023/09/25 22:30:04;;;;;;;3.25;1.98;;;;;;;14.18;63.29;101018.84;10425403;28;20045;-59
2023/09/25 22:35:07;;;;;;;2.40;1.98;;;;;;;14.13;63.40;101013.13;10421092;28;20045;-59
2023/09/25 22:40:12;;;;;;;4.53;2.10;;;;;;;14.11;63.42;101008.94;10421806;28;20083;-59
2023/09/25 22:45:28;;;;;;;5.35;2.20;;;;;;;14.06;63.58;101007.63;10403480;28;20072;-60
2023/09/25 22:50:30;;;;;;;2.08;1.80;;;;;;;14.04;63.79;101011.50;10432957;28;20052;-60
2023/09/25 22:55:32;;;;;;;5.18;1.30;;;;;;;13.99;63.79;101008.53;10423760;28;20444;-59
2023/09/25 23:00:34;;;;;;;4.40;2.00;;;;;;;13.93;63.80;101015.50;10428192;28;20542;-59
2023/09/25 23:05:35;;;;;;;4.40;1.90;;;;;;;13.75;64.13;101005.00;10419769;28;20045;-59
2023/09/25 23:10:37;;;;;;;5.28;2.00;;;;;;;13.75;64.15;101002.31;10425806;28;20052;-56